Time;durP1;ratioP1;P1;durP2;ratioP2;P2;SDS_P1;SDS_P2;PMS_P1;PMS_P2;Temp;Humidity;BMP_temperature;BMP_pressure;BME280_temperature;BME280_humidity;BME280_pressure;Samples;Min_cycle;Max_cycle;Signal;HPM_P1;HPM_P2
2022/08/17 00:01:38;;;;;;;0.10;0.10;;;;;;;-145.06;100.00;63404.56;10374709;28;20133;-72
2022/08/17 00:06:39;;;;;;;0.00;0.00;;;;;;;-145.06;100.00;63404.56;10374621;28;20473;-73
2022/08/17 00:11:42;;;;;;;0.10;0.10;;;;;;;-145.06;100.00;63404.56;10375999;28;20153;-73
2022/08/17 00:16:50;;;;;;;0.10;0.10;;;;;;;-145.06;100.00;63404.56;10406268;28;20032;-73
2022/08/17 00:21:55;;;;;;;0.10;0.10;;;;;;;-145.06;100.00;63404.56;10414886;28;20029;-74
2022/08/17 00:26:55;;;;;;;0.10;0.10;;;;;;;-145.06;100.00;63404.56;10414065;28;20013;-74
2022/08/17 00:31:55;;;;;;;0.10;0.10;;;;;;;-145.06;100.00;63404.56;10414056;28;20021;-74
2022/08/17 00:36:56;;;;;;;0.00;0.00;;;;;;;-145.06;100.00;63404.56;10414270;28;20647;-74
2022/08/17 00:41:56;;;;;;;0.00;0.00;;;;;;;-145.06;100.00;63404.56;10414460;28;20396;-74
2022/08/17 00:46:56;;;;;;;0.00;0.00;;;;;;;-145.06;100.00;63404.56;10374094;28;20251;-74
2022/08/17 00:52:07;;;;;;;0.10;0.10;;;;;;;-145.06;100.00;63404.56;10372778;28;20030;-74
2022/08/17 00:57:13;;;;;;;0.10;0.10;;;;;;;-145.06;100.00;63404.56;10372640;28;20025;-73
2022/08/17 01:02:16;;;;;;;0.10;0.10;;;;;;;-145.06;100.00;63404.56;10354700;28;20030;-75
2022/08/17 01:07:20;;;;;;;0.10;0.10;;;;;;;-145.06;100.00;63404.56;10371967;28;20018;-75
2022/08/17 01:12:20;;;;;;;0.10;0.10;;;;;;;-145.06;100.00;63404.56;10412488;28;20028;-75
2022/08/17 01:17:21;;;;;;;0.10;0.10;;;;;;;-145.06;100.00;63404.56;10412291;28;20029;-74
2022/08/17 01:22:23;;;;;;;0.10;0.10;;;;;;;-145.06;100.00;63404.56;10413000;28;20275;-73
2022/08/17 01:27:25;;;;;;;0.10;0.10;;;;;;;-145.06;100.00;63404.56;10412691;28;20045;-74
2022/08/17 01:32:29;;;;;;;0.10;0.10;;;;;;;-145.06;100.00;63404.56;10413318;28;20693;-75
2022/08/17 01:37:34;;;;;;;0.10;0.10;;;;;;;-145.06;100.00;63404.56;10394479;28;20026;-75
2022/08/17 01:42:51;;;;;;;0.10;0.10;;;;;;;-145.06;100.00;63404.56;10412612;28;20080;-75
2022/08/17 01:47:52;;;;;;;0.10;0.10;;;;;;;-145.06;100.00;63404.56;10393383;28;20021;-75
2022/08/17 01:52:58;;;;;;;0.05;0.05;;;;;;;-145.06;100.00;63404.56;10411327;28;20025;-74
2022/08/17 01:57:58;;;;;;;0.00;0.00;;;;;;;-145.06;100.00;63404.56;10393143;28;20024;-74
2022/08/17 02:02:59;;;;;;;0.10;0.10;;;;;;;-145.06;100.00;63404.56;10393399;28;20029;-75
2022/08/17 02:08:01;;;;;;;0.10;0.10;;;;;;;-145.06;100.00;63404.56;10410737;28;20025;-74
2022/08/17 02:13:03;;;;;;;0.10;0.10;;;;;;;-145.06;100.00;63404.56;10403371;28;20026;-75
2022/08/17 02:18:04;;;;;;;0.10;0.10;;;;;;;-145.06;100.00;63404.56;10409173;28;20025;-74
2022/08/17 02:23:07;;;;;;;0.00;0.00;;;;;;;-145.06;100.00;63404.56;10392327;28;20552;-73
2022/08/17 02:28:08;;;;;;;0.17;0.17;;;;;;;-145.06;100.00;63404.56;10409809;28;20013;-75
2022/08/17 02:33:09;;;;;;;0.10;0.10;;;;;;;-145.06;100.00;63404.56;10410379;28;20056;-75
2022/08/17 02:38:09;;;;;;;0.10;0.10;;;;;;;-145.06;100.00;63404.56;10392045;28;20022;-75
2022/08/17 02:43:10;;;;;;;0.10;0.10;;;;;;;-145.06;100.00;63404.56;10395278;28;20432;-75
2022/08/17 02:48:10;;;;;;;0.10;0.10;;;;;;;-145.06;100.00;63404.56;10368593;28;20032;-75
2022/08/17 02:53:11;;;;;;;0.10;0.10;;;;;;;-145.06;100.00;63404.56;10392207;28;20032;-75
2022/08/17 02:58:12;;;;;;;0.08;0.08;;;;;;;-145.06;100.00;63404.56;10405286;28;20115;-74
2022/08/17 03:03:17;;;;;;;0.10;0.10;;;;;;;-145.06;100.00;63404.56;10422479;28;20029;-75
2022/08/17 03:08:18;;;;;;;0.10;0.10;;;;;;;-145.06;100.00;63404.56;10422335;28;20021;-74
2022/08/17 03:13:19;;;;;;;0.10;0.10;;;;;;;-145.06;100.00;63404.56;10411872;28;20399;-75
2022/08/17 03:18:22;;;;;;;0.10;0.10;;;;;;;-145.06;100.00;63404.56;10415959;28;20032;-75
2022/08/17 03:23:23;;;;;;;0.00;0.00;;;;;;;-145.06;100.00;63404.56;10422615;28;20421;-75
2022/08/17 03:28:24;;;;;;;0.10;0.10;;;;;;;-145.06;100.00;63404.56;10404137;28;20021;-75
2022/08/17 03:33:25;;;;;;;0.10;0.10;;;;;;;-145.06;100.00;63404.56;10404179;28;20456;-73
2022/08/17 03:38:25;;;;;;;0.10;0.10;;;;;;;-145.06;100.00;63404.56;10412513;28;20022;-72
2022/08/17 03:43:29;;;;;;;0.10;0.10;;;;;;;-145.06;100.00;63404.56;10414150;28;20318;-73
2022/08/17 03:59:16;;;;;;;0.10;0.10;;;;;;;-145.06;100.00;63404.56;10421666;28;20076;-74
2022/08/17 04:04:18;;;;;;;0.10;0.10;;;;;;;-145.06;100.00;63404.56;10420570;28;20488;-74
2022/08/17 04:09:18;;;;;;;0.10;0.10;;;;;;;-145.06;100.00;63404.56;10414827;28;20110;-74
2022/08/17 04:14:19;;;;;;;0.10;0.10;;;;;;;-145.06;100.00;63404.56;10396470;28;20049;-74
2022/08/17 04:19:19;;;;;;;0.10;0.10;;;;;;;-145.06;100.00;63404.56;10373886;28;20036;-74
2022/08/17 04:24:19;;;;;;;0.10;0.10;;;;;;;-145.06;100.00;63404.56;10373150;28;20061;-74
2022/08/17 04:29:21;;;;;;;0.00;0.00;;;;;;;-145.06;100.00;63404.56;10373799;28;20481;-74
2022/08/17 04:34:22;;;;;;;0.10;0.10;;;;;;;-145.06;100.00;63404.56;10372671;28;20076;-74
2022/08/17 04:39:24;;;;;;;0.10;0.10;;;;;;;-145.06;100.00;63404.56;10373028;28;20022;-74
2022/08/17 04:44:25;;;;;;;0.10;0.10;;;;;;;-145.06;100.00;63404.56;10372260;28;20037;-74
2022/08/17 04:49:25;;;;;;;0.10;0.10;;;;;;;-145.06;100.00;63404.56;10372552;28;20025;-74
2022/08/17 04:54:26;;;;;;;0.10;0.10;;;;;;;-145.06;100.00;63404.56;10372269;28;20037;-75
2022/08/17 04:59:26;;;;;;;0.10;0.10;;;;;;;-145.06;100.00;63404.56;10372154;28;20021;-75
2022/08/17 05:04:27;;;;;;;0.03;0.03;;;;;;;-145.06;100.00;63404.56;10371675;28;20393;-75
2022/08/17 05:09:27;;;;;;;0.10;0.10;;;;;;;-145.06;100.00;63404.56;10371782;28;20248;-75
2022/08/17 05:14:28;;;;;;;0.10;0.10;;;;;;;-145.06;100.00;63404.56;10376712;28;20073;-75
2022/08/17 05:19:28;;;;;;;0.10;0.10;;;;;;;-145.06;100.00;63404.56;10353366;28;20279;-75
2022/08/17 05:24:28;;;;;;;0.00;0.00;;;;;;;-145.06;100.00;63404.56;10371003;28;20037;-75
2022/08/17 05:29:29;;;;;;;0.10;0.10;;;;;;;-145.06;100.00;63404.56;10352830;28;20022;-75
2022/08/17 05:34:29;;;;;;;0.10;0.10;;;;;;;-145.06;100.00;63404.56;10353206;28;20192;-75
2022/08/17 05:39:30;;;;;;;0.00;0.00;;;;;;;-145.06;100.00;63404.56;10426104;22;20236;-74
2022/08/17 05:44:31;;;;;;;0.00;0.00;;;;;;;-145.06;100.00;63404.56;10492982;28;20027;-74
2022/08/17 05:49:32;;;;;;;0.00;0.00;;;;;;;-145.06;100.00;63404.56;10494083;28;20027;-74
2022/08/17 05:54:50;;;;;;;0.00;0.00;;;;;;;-145.06;100.00;63404.56;10493080;28;20496;-74
2022/08/17 06:00:02;;;;;;;0.00;0.00;;;;;;;-145.06;100.00;63404.56;10490941;28;20043;-74
2022/08/17 06:05:17;;;;;;;0.10;0.10;;;;;;;-145.06;100.00;63404.56;10492841;28;20032;-74
2022/08/17 06:10:42;;;;;;;0.00;0.00;;;;;;;-145.06;100.00;63404.56;10493278;28;20028;-74
2022/08/17 06:16:03;;;;;;;0.10;0.10;;;;;;;-145.06;100.00;63404.56;10505194;28;20427;-74
2022/08/17 06:21:09;;;;;;;0.10;0.10;;;;;;;-145.06;100.00;63404.56;10534242;28;20028;-74
2022/08/17 06:26:18;;;;;;;0.10;0.10;;;;;;;-145.06;100.00;63404.56;10515971;28;20035;-74
2022/08/17 06:31:26;;;;;;;0.00;0.00;;;;;;;-145.06;100.00;63404.56;10533582;28;20055;-74
2022/08/17 06:36:30;;;;;;;0.10;0.10;;;;;;;-145.06;100.00;63404.56;10515762;28;20020;-74
2022/08/17 06:41:44;;;;;;;0.00;0.00;;;;;;;-145.06;100.00;63404.56;10532215;28;20046;-74
2022/08/17 06:46:49;;;;;;;0.10;0.10;;;;;;;-145.06;100.00;63404.56;10488760;28;20415;-74
2022/08/17 06:52:21;;;;;;;0.10;0.10;;;;;;;-145.06;100.00;63404.56;10489559;28;20035;-74
2022/08/17 06:57:32;;;;;;;0.10;0.10;;;;;;;-145.06;100.00;63404.56;10491423;28;20557;-75
2022/08/17 07:02:57;;;;;;;0.10;0.10;;;;;;;-145.06;100.00;63404.56;10492019;28;20025;-75
2022/08/17 07:08:08;;;;;;;0.10;0.10;;;;;;;-145.06;100.00;63404.56;10491367;28;20491;-74
2022/08/17 07:13:35;;;;;;;0.10;0.10;;;;;;;-145.06;100.00;63404.56;10491138;28;20016;-75
2022/08/17 07:18:36;;;;;;;0.10;0.10;;;;;;;-145.06;100.00;63404.56;10482610;28;20033;-75
2022/08/17 07:23:55;;;;;;;0.10;0.10;;;;;;;-145.06;100.00;63404.56;10491135;28;20024;-74
2022/08/17 07:28:58;;;;;;;0.10;0.10;;;;;;;-145.06;100.00;63404.56;10491249;28;20020;-75
2022/08/17 07:34:06;;;;;;;0.10;0.10;;;;;;;-145.06;100.00;63404.56;10490837;28;20059;-75
2022/08/17 07:39:09;;;;;;;0.10;0.10;;;;;;;-145.06;100.00;63404.56;10470914;28;20107;-73
2022/08/17 07:44:12;;;;;;;0.10;0.10;;;;;;;-145.06;100.00;63404.56;10495852;28;20111;-73
2022/08/17 07:49:12;;;;;;;0.10;0.10;;;;;;;-145.06;100.00;63404.56;10538954;28;20024;-73
2022/08/17 07:54:28;;;;;;;0.10;0.10;;;;;;;-145.06;100.00;63404.56;10541318;28;20051;-74
2022/08/17 07:59:36;;;;;;;0.10;0.10;;;;;;;-145.06;100.00;63404.56;10540219;28;20020;-73
2022/08/17 08:04:49;;;;;;;0.10;0.10;;;;;;;-145.06;100.00;63404.56;10538892;28;20394;-74
2022/08/17 08:10:10;;;;;;;0.10;0.10;;;;;;;-145.06;100.00;63404.56;10538904;28;20070;-74
2022/08/17 08:15:33;;;;;;;0.00;0.00;;;;;;;-145.06;100.00;63404.56;10505038;28;20030;-73
2022/08/17 08:20:42;;;;;;;0.10;0.10;;;;;;;-145.06;100.00;63404.56;10493953;28;20019;-74
2022/08/17 08:26:12;;;;;;;0.10;0.10;;;;;;;-145.06;100.00;63404.56;10496576;28;20031;-74
2022/08/17 08:31:12;;;;;;;0.10;0.10;;;;;;;-145.06;100.00;63404.56;10478301;28;20107;-74
2022/08/17 08:36:52;;;;;;;0.10;0.10;;;;;;;-145.06;100.00;63404.56;10495175;28;20103;-74
2022/08/17 08:42:13;;;;;;;0.10;0.10;;;;;;;-145.06;100.00;63404.56;10455823;28;20158;-74
2022/08/17 08:47:21;;;;;;;;;;;;;;;-145.06;100.00;63404.56;10496814;28;20038;-73
2022/08/17 08:52:43;;;;;;;0.10;0.10;;;;;;;-145.06;100.00;63404.56;10495353;28;20012;-74
2022/08/17 08:57:56;;;;;;;0.03;0.03;;;;;;;-145.06;100.00;63404.56;10495482;28;20134;-74
2022/08/17 09:03:06;;;;;;;0.10;0.10;;;;;;;-145.06;100.00;63404.56;10495917;28;20035;-74
2022/08/17 09:08:09;;;;;;;0.10;0.10;;;;;;;-145.06;100.00;63404.56;10495184;28;20551;-74
2022/08/17 09:13:22;;;;;;;0.10;0.10;;;;;;;-145.06;100.00;63404.56;10477418;28;20021;-74
2022/08/17 09:18:32;;;;;;;0.10;0.10;;;;;;;-145.06;100.00;63404.56;10494617;28;20035;-74
2022/08/17 09:23:41;;;;;;;0.10;0.10;;;;;;;-145.06;100.00;63404.56;10494891;28;20032;-74
2022/08/17 09:28:49;;;;;;;0.10;0.10;;;;;;;-145.06;100.00;63404.56;10493675;28;20379;-74
2022/08/17 09:33:50;;;;;;;0.10;0.10;;;;;;;-145.06;100.00;63404.56;10493912;28;20028;-74
2022/08/17 09:39:28;;;;;;;0.10;0.10;;;;;;;-145.06;100.00;63404.56;10494178;28;20410;-74
2022/08/17 09:45:06;;;;;;;0.10;0.10;;;;;;;-145.06;100.00;63404.56;10451543;28;20097;-74
2022/08/17 09:50:23;;;;;;;0.10;0.10;;;;;;;-145.06;100.00;63404.56;10491281;28;20024;-74
2022/08/17 09:55:41;;;;;;;0.10;0.10;;;;;;;-145.06;100.00;63404.56;10492892;28;20058;-74
2022/08/17 10:00:55;;;;;;;0.10;0.10;;;;;;;-145.06;100.00;63404.56;10476646;28;20028;-74
2022/08/17 10:06:14;;;;;;;0.10;0.10;;;;;;;-145.06;100.00;63404.56;10492996;28;20501;-74
2022/08/17 10:17:01;;;;;;;0.10;0.10;;;;;;;-145.06;100.00;63404.56;10510935;28;20032;-74
2022/08/17 10:27:41;;;;;;;0.10;0.10;;;;;;;-145.06;100.00;63404.56;10535097;28;20095;-74
2022/08/17 10:32:55;;;;;;;0.10;0.10;;;;;;;-145.06;100.00;63404.56;10534844;28;20368;-74
2022/08/17 10:38:20;;;;;;;0.10;0.10;;;;;;;-145.06;100.00;63404.56;10507638;28;20445;-73
2022/08/17 10:43:47;;;;;;;0.10;0.10;;;;;;;-145.06;100.00;63404.56;10490544;28;20107;-74
2022/08/17 10:49:10;;;;;;;0.10;0.10;;;;;;;-145.06;100.00;63404.56;10530878;28;20024;-74
2022/08/17 10:54:39;;;;;;;0.03;0.03;;;;;;;-145.06;100.00;63404.56;10533076;28;20028;-74
2022/08/17 10:59:40;;;;;;;0.10;0.10;;;;;;;-145.06;100.00;63404.56;10532521;28;20024;-74
2022/08/17 11:05:01;;;;;;;0.10;0.10;;;;;;;-145.06;100.00;63404.56;10532215;28;20170;-74
2022/08/17 11:10:20;;;;;;;0.10;0.10;;;;;;;-145.06;100.00;63404.56;10521797;28;20482;-73
2022/08/17 11:15:43;;;;;;;0.00;0.00;;;;;;;-145.06;100.00;63404.56;10512556;28;20639;-74
2022/08/17 11:21:08;;;;;;;0.10;0.10;;;;;;;-145.06;100.00;63404.56;10542103;28;20051;-74
2022/08/17 11:26:28;;;;;;;0.10;0.10;;;;;;;-145.06;100.00;63404.56;10541467;28;20055;-74
2022/08/17 11:31:41;;;;;;;0.10;0.10;;;;;;;-145.06;100.00;63404.56;10523362;28;20028;-74
2022/08/17 11:36:54;;;;;;;0.00;0.00;;;;;;;-145.06;100.00;63404.56;10541059;28;20024;-73
2022/08/17 11:42:25;;;;;;;0.10;0.10;;;;;;;-145.06;100.00;63404.56;10568963;22;20118;-74
2022/08/17 11:52:59;;;;;;;0.00;0.00;;;;;;;-145.06;100.00;63404.56;10476485;28;20036;-75
2022/08/17 11:58:21;;;;;;;0.07;0.07;;;;;;;-145.06;100.00;63404.56;10477390;28;20112;-75
2022/08/17 12:03:25;;;;;;;0.10;0.10;;;;;;;-145.06;100.00;63404.56;10486595;28;20028;-75
2022/08/17 12:08:28;;;;;;;0.10;0.10;;;;;;;-145.06;100.00;63404.56;10456355;28;20021;-75
2022/08/17 12:13:30;;;;;;;0.00;0.00;;;;;;;-145.06;100.00;63404.56;10447739;28;20040;-75
2022/08/17 12:18:36;;;;;;;0.10;0.10;;;;;;;-145.06;100.00;63404.56;10478468;28;20017;-74
2022/08/17 12:24:14;;;;;;;0.10;0.10;;;;;;;-145.06;100.00;63404.56;10497021;28;20013;-75
2022/08/17 12:29:16;;;;;;;0.00;0.00;;;;;;;-145.06;100.00;63404.56;10495106;28;20020;-74
2022/08/17 12:34:18;;;;;;;0.10;0.10;;;;;;;-145.06;100.00;63404.56;10496207;28;20058;-75
2022/08/17 12:39:22;;;;;;;0.10;0.10;;;;;;;-145.06;100.00;63404.56;10496244;28;20103;-75
2022/08/17 12:44:24;;;;;;;0.10;0.10;;;;;;;-145.06;100.00;63404.56;10483465;28;20452;-74
2022/08/17 12:49:34;;;;;;;0.10;0.10;;;;;;;-145.06;100.00;63404.56;10495367;28;20013;-74
2022/08/17 12:55:04;;;;;;;0.10;0.10;;;;;;;-145.06;100.00;63404.56;10451691;28;20016;-75
2022/08/17 13:00:27;;;;;;;0.10;0.10;;;;;;;-145.06;100.00;63404.56;10455491;28;20086;-75
2022/08/17 13:05:34;;;;;;;0.10;0.10;;;;;;;-145.06;100.00;63404.56;10440686;28;20124;-74
2022/08/17 13:10:36;;;;;;;0.10;0.10;;;;;;;-145.06;100.00;63404.56;10484268;28;20469;-75
2022/08/17 13:15:40;;;;;;;;;;;;;;;-145.06;100.00;63404.56;10468874;28;20490;-74
2022/08/17 13:20:53;;;;;;;0.10;0.10;;;;;;;-145.06;100.00;63404.56;10493224;28;20382;-74
2022/08/17 13:25:54;;;;;;;0.10;0.10;;;;;;;-145.06;100.00;63404.56;10493615;28;20418;-76
2022/08/17 13:31:21;;;;;;;0.10;0.10;;;;;;;-145.06;100.00;63404.56;10493346;28;20017;-76
2022/08/17 13:36:32;;;;;;;0.10;0.10;;;;;;;-145.06;100.00;63404.56;10492691;28;20568;-76
2022/08/17 13:41:37;;;;;;;0.10;0.10;;;;;;;-145.06;100.00;63404.56;10478838;28;20021;-75
2022/08/17 13:46:38;;;;;;;0.00;0.00;;;;;;;-145.06;100.00;63404.56;10469638;28;20025;-75
2022/08/17 13:51:44;;;;;;;0.10;0.10;;;;;;;-145.06;100.00;63404.56;10492410;28;20418;-75
2022/08/17 13:57:15;;;;;;;0.10;0.10;;;;;;;-145.06;100.00;63404.56;10492220;28;20104;-76
2022/08/17 14:02:18;;;;;;;0.10;0.10;;;;;;;-145.06;100.00;63404.56;10491764;28;20036;-75
2022/08/17 14:07:35;;;;;;;0.00;0.00;;;;;;;-145.06;100.00;63404.56;10491712;28;20012;-75
2022/08/17 14:12:38;;;;;;;0.10;0.10;;;;;;;-145.06;100.00;63404.56;10486977;28;20100;-75
2022/08/17 14:17:38;;;;;;;0.10;0.10;;;;;;;-145.06;100.00;63404.56;10490135;28;20371;-75
2022/08/17 14:22:43;;;;;;;0.10;0.10;;;;;;;-145.06;100.00;63404.56;10458424;28;20023;-75
2022/08/17 14:27:44;;;;;;;0.10;0.10;;;;;;;-145.06;100.00;63404.56;10450059;28;20384;-75
2022/08/17 14:32:47;;;;;;;0.10;0.10;;;;;;;-145.06;100.00;63404.56;10450351;28;20031;-74
2022/08/17 14:37:49;;;;;;;0.10;0.10;;;;;;;-145.06;100.00;63404.56;10449048;28;20388;-75
2022/08/17 14:42:51;;;;;;;0.10;0.10;;;;;;;-145.06;100.00;63404.56;10456194;28;20032;-75
2022/08/17 14:47:52;;;;;;;0.10;0.10;;;;;;;-145.06;100.00;63404.56;10472391;28;20526;-74
2022/08/17 14:52:55;;;;;;;0.10;0.10;;;;;;;-145.06;100.00;63404.56;10489933;28;20044;-74
2022/08/17 14:57:55;;;;;;;0.00;0.00;;;;;;;-145.06;100.00;63404.56;10471015;28;20032;-75
2022/08/17 15:02:58;;;;;;;0.10;0.10;;;;;;;-145.06;100.00;63404.56;10449050;28;20017;-75
2022/08/17 15:08:00;;;;;;;0.10;0.10;;;;;;;-145.06;100.00;63404.56;10431242;28;20384;-74
2022/08/17 15:13:01;;;;;;;0.10;0.10;;;;;;;-145.06;100.00;63404.56;10457216;28;20192;-75
2022/08/17 15:18:01;;;;;;;0.10;0.10;;;;;;;-145.06;100.00;63404.56;10489603;28;20016;-75
2022/08/17 15:23:02;;;;;;;0.10;0.10;;;;;;;-145.06;100.00;63404.56;10490353;28;20016;-74
2022/08/17 15:28:02;;;;;;;0.10;0.10;;;;;;;-145.06;100.00;63404.56;10471169;28;20490;-73
2022/08/17 15:33:03;;;;;;;0.10;0.10;;;;;;;-145.06;100.00;63404.56;10478445;28;20059;-74
2022/08/17 15:38:06;;;;;;;0.10;0.10;;;;;;;-145.06;100.00;63404.56;10448095;28;20035;-74
2022/08/17 15:43:10;;;;;;;0.10;0.10;;;;;;;-145.06;100.00;63404.56;10457373;28;20064;-74
2022/08/17 15:48:13;;;;;;;0.10;0.10;;;;;;;-145.06;100.00;63404.56;10453235;28;20029;-74
2022/08/17 15:53:13;;;;;;;0.10;0.10;;;;;;;-145.06;100.00;63404.56;10469958;28;20490;-75
2022/08/17 15:58:13;;;;;;;0.10;0.10;;;;;;;-145.06;100.00;63404.56;10489403;28;20039;-75
2022/08/17 16:03:15;;;;;;;0.20;0.20;;;;;;;-145.06;100.00;63404.56;10494571;28;20266;-75
2022/08/17 16:08:16;;;;;;;0.10;0.10;;;;;;;-145.06;100.00;63404.56;10493783;28;20021;-75
2022/08/17 16:13:18;;;;;;;0.10;0.10;;;;;;;-145.06;100.00;63404.56;10492086;28;20025;-73
2022/08/17 16:18:19;;;;;;;0.10;0.10;;;;;;;-145.06;100.00;63404.56;10495901;28;20024;-75
2022/08/17 16:23:19;;;;;;;0.10;0.10;;;;;;;-145.06;100.00;63404.56;10496361;28;20059;-75
2022/08/17 16:28:20;;;;;;;0.10;0.10;;;;;;;-145.06;100.00;63404.56;10495759;28;20047;-74
2022/08/17 16:33:21;;;;;;;0.10;0.10;;;;;;;-145.06;100.00;63404.56;10496106;28;20021;-74
2022/08/17 16:38:21;;;;;;;0.10;0.10;;;;;;;-145.06;100.00;63404.56;10495219;28;20020;-74
2022/08/17 16:43:21;;;;;;;0.10;0.10;;;;;;;-145.06;100.00;63404.56;10489537;28;20873;-73
2022/08/17 16:48:22;;;;;;;0.10;0.10;;;;;;;-145.06;100.00;63404.56;10494659;28;20032;-73
2022/08/17 16:53:25;;;;;;;0.00;0.00;;;;;;;-145.06;100.00;63404.56;10493597;28;20290;-74
2022/08/17 16:58:25;;;;;;;0.10;0.10;;;;;;;-145.06;100.00;63404.56;10454830;28;20081;-73
2022/08/17 17:03:28;;;;;;;0.10;0.10;;;;;;;-145.06;100.00;63404.56;10492096;28;20070;-74
2022/08/17 17:08:34;;;;;;;0.10;0.10;;;;;;;-145.06;100.00;63404.56;10493564;28;20027;-75
2022/08/17 17:13:57;;;;;;;0.00;0.00;;;;;;;-145.06;100.00;63404.56;10470991;28;20028;-73
2022/08/17 17:18:57;;;;;;;0.00;0.00;;;;;;;-145.06;100.00;63404.56;10490483;28;20482;-75
2022/08/17 17:24:06;;;;;;;0.00;0.00;;;;;;;-145.06;100.00;63404.56;10476600;28;20023;-74
2022/08/17 17:29:43;;;;;;;0.10;0.10;;;;;;;-145.06;100.00;63404.56;10463107;28;20427;-75
2022/08/17 17:34:46;;;;;;;0.00;0.00;;;;;;;-145.06;100.00;63404.56;10439665;28;20107;-73
2022/08/17 17:45:15;;;;;;;0.00;0.00;;;;;;;-145.06;100.00;63404.56;10427732;28;20495;-71
2022/08/17 17:50:17;;;;;;;;;;;;;;;-145.06;100.00;63404.56;10424974;28;20461;-71
2022/08/17 17:56:04;;;;;;;0.10;0.10;;;;;;;-145.06;100.00;63404.56;10404762;28;19912;-71
2022/08/17 18:01:20;;;;;;;0.10;0.10;;;;;;;-145.06;100.00;63404.56;10387658;28;20030;-72
2022/08/17 18:06:51;;;;;;;0.10;0.10;;;;;;;-145.06;100.00;63404.56;10406329;28;20026;-72
2022/08/17 18:12:26;;;;;;;0.03;0.03;;;;;;;-145.06;100.00;63404.56;10383576;28;20081;-72
2022/08/17 18:17:28;;;;;;;0.00;0.00;;;;;;;-145.06;100.00;63404.56;10392717;28;20069;-72
2022/08/17 18:22:30;;;;;;;0.00;0.00;;;;;;;-145.06;100.00;63404.56;10403400;28;20064;-73
2022/08/17 18:27:35;;;;;;;0.05;0.05;;;;;;;-145.06;100.00;63404.56;10370904;28;20013;-72
2022/08/17 18:32:40;;;;;;;0.10;0.10;;;;;;;-145.06;100.00;63404.56;10388342;28;20022;-72
2022/08/17 18:37:45;;;;;;;0.00;0.00;;;;;;;-145.06;100.00;63404.56;10403125;28;20083;-72
2022/08/17 18:43:10;;;;;;;0.00;0.00;;;;;;;-145.06;100.00;63404.56;10414649;28;20025;-74
2022/08/17 18:48:19;;;;;;;0.10;0.10;;;;;;;-145.06;100.00;63404.56;10416395;28;20025;-74
2022/08/17 18:53:30;;;;;;;0.10;0.10;;;;;;;-145.06;100.00;63404.56;10396997;28;20099;-74
2022/08/17 18:58:30;;;;;;;0.10;0.10;;;;;;;-145.06;100.00;63404.56;10389027;28;20018;-75
2022/08/17 19:03:41;;;;;;;0.10;0.10;;;;;;;-145.06;100.00;63404.56;10410984;28;20041;-74
2022/08/17 19:08:43;;;;;;;0.10;0.10;;;;;;;-145.06;100.00;63404.56;10423705;28;20111;-75
2022/08/17 19:13:49;;;;;;;0.00;0.00;;;;;;;-145.06;100.00;63404.56;10413553;28;20519;-75
2022/08/17 19:19:05;;;;;;;0.10;0.10;;;;;;;-145.06;100.00;63404.56;10364891;28;20025;-74
2022/08/17 19:24:19;;;;;;;0.10;0.10;;;;;;;-145.06;100.00;63404.56;10369492;28;20456;-75
2022/08/17 19:29:24;;;;;;;0.10;0.10;;;;;;;-145.06;100.00;63404.56;10353924;28;20021;-74
2022/08/17 19:34:30;;;;;;;0.10;0.10;;;;;;;-145.06;100.00;63404.56;10343431;28;20465;-74
2022/08/17 19:39:46;;;;;;;0.10;0.10;;;;;;;-145.06;100.00;63404.56;10393524;28;20021;-74
2022/08/17 19:44:56;;;;;;;0.10;0.10;;;;;;;-145.06;100.00;63404.56;10390303;28;20053;-74
2022/08/17 19:50:21;;;;;;;0.10;0.10;;;;;;;-145.06;100.00;63404.56;10380892;28;20483;-74
2022/08/17 19:55:30;;;;;;;0.10;0.10;;;;;;;-145.06;100.00;63404.56;10383539;28;20021;-74
2022/08/17 20:00:38;;;;;;;0.10;0.10;;;;;;;-145.06;100.00;63404.56;10391685;28;20017;-74
2022/08/17 20:05:59;;;;;;;0.00;0.00;;;;;;;-145.06;100.00;63404.56;10392180;28;20017;-74
2022/08/17 20:11:08;;;;;;;0.10;0.10;;;;;;;-145.06;100.00;63404.56;10385700;28;20033;-73
2022/08/17 20:16:10;;;;;;;0.10;0.10;;;;;;;-145.06;100.00;63404.56;10372027;28;20022;-73
2022/08/17 20:22:00;;;;;;;0.00;0.00;;;;;;;-145.06;100.00;63404.56;10367767;28;20477;-73
2022/08/17 20:27:17;;;;;;;0.05;0.05;;;;;;;-145.06;100.00;63404.56;10338347;28;20060;-73
2022/08/17 20:32:23;;;;;;;0.05;0.05;;;;;;;-145.06;100.00;63404.56;10391057;28;20022;-74
2022/08/17 20:37:28;;;;;;;0.08;0.08;;;;;;;-145.06;100.00;63404.56;10364585;28;20045;-73
2022/08/17 20:42:31;;;;;;;0.10;0.10;;;;;;;-145.06;100.00;63404.56;10387506;28;20115;-73
2022/08/17 20:47:42;;;;;;;0.10;0.10;;;;;;;-145.06;100.00;63404.56;10388032;28;20022;-73
2022/08/17 20:52:58;;;;;;;0.10;0.10;;;;;;;-145.06;100.00;63404.56;10386326;28;20025;-73
2022/08/17 20:58:21;;;;;;;0.00;0.00;;;;;;;-145.06;100.00;63404.56;10367182;28;20033;-73
2022/08/17 21:03:22;;;;;;;0.00;0.00;;;;;;;-145.06;100.00;63404.56;10383327;28;20021;-73
2022/08/17 21:08:31;;;;;;;0.00;0.00;;;;;;;-145.06;100.00;63404.56;10390346;28;20585;-74
2022/08/17 21:14:00;;;;;;;0.10;0.10;;;;;;;-145.06;100.00;63404.56;10391099;28;20029;-74
2022/08/17 21:19:38;;;;;;;0.10;0.10;;;;;;;-145.06;100.00;63404.56;10382006;28;20017;-73
2022/08/17 21:25:02;;;;;;;0.10;0.10;;;;;;;-145.06;100.00;63404.56;10377050;28;20567;-74
2022/08/17 21:30:06;;;;;;;0.10;0.10;;;;;;;-145.06;100.00;63404.56;10380580;28;20021;-74
2022/08/17 21:35:06;;;;;;;0.00;0.00;;;;;;;-145.06;100.00;63404.56;10383775;28;20052;-74
2022/08/17 21:40:09;;;;;;;0.10;0.10;;;;;;;-145.06;100.00;63404.56;10384884;28;20052;-74
2022/08/17 21:45:29;;;;;;;0.10;0.10;;;;;;;-145.06;100.00;63404.56;10381629;28;20290;-74
2022/08/17 21:50:29;;;;;;;0.00;0.00;;;;;;;-145.06;100.00;63404.56;10386703;28;20026;-73
2022/08/17 21:55:32;;;;;;;0.00;0.00;;;;;;;-145.06;100.00;63404.56;10393032;28;20029;-74
2022/08/17 22:00:34;;;;;;;0.10;0.10;;;;;;;-145.06;100.00;63404.56;10387199;28;20546;-74
2022/08/17 22:05:38;;;;;;;0.10;0.10;;;;;;;-145.06;100.00;63404.56;10387311;28;20439;-74
2022/08/17 22:10:43;;;;;;;0.00;0.00;;;;;;;-145.06;100.00;63404.56;10383094;28;20025;-73
2022/08/17 22:16:04;;;;;;;0.10;0.10;;;;;;;-145.06;100.00;63404.56;10386973;28;20532;-74
2022/08/17 22:21:06;;;;;;;0.10;0.10;;;;;;;-145.06;100.00;63404.56;10381409;28;20025;-74
2022/08/17 22:26:08;;;;;;;0.10;0.10;;;;;;;-145.06;100.00;63404.56;10390284;28;20033;-74
2022/08/17 22:31:11;;;;;;;0.10;0.10;;;;;;;-145.06;100.00;63404.56;10376655;28;20485;-74
2022/08/17 22:36:31;;;;;;;0.10;0.10;;;;;;;-145.06;100.00;63404.56;10393006;28;20380;-74
2022/08/17 22:41:35;;;;;;;0.00;0.00;;;;;;;-145.06;100.00;63404.56;10387490;28;20061;-73
2022/08/17 22:46:39;;;;;;;0.10;0.10;;;;;;;-145.06;100.00;63404.56;10361205;28;20440;-72
2022/08/17 22:51:40;;;;;;;0.00;0.00;;;;;;;-145.06;100.00;63404.56;10383470;28;20022;-72
2022/08/17 23:02:32;;;;;;;0.10;0.10;;;;;;;-145.06;100.00;63404.56;10385006;28;20025;-73
2022/08/17 23:07:32;;;;;;;0.00;0.00;;;;;;;-145.06;100.00;63404.56;10380639;28;20315;-72
2022/08/17 23:12:37;;;;;;;0.07;0.07;;;;;;;-145.06;100.00;63404.56;10390590;28;20443;-72
2022/08/17 23:17:38;;;;;;;0.10;0.10;;;;;;;-145.06;100.00;63404.56;10390523;28;20063;-72
2022/08/17 23:22:39;;;;;;;0.10;0.10;;;;;;;-145.06;100.00;63404.56;10393043;28;20028;-73
2022/08/17 23:27:40;;;;;;;0.10;0.10;;;;;;;-145.06;100.00;63404.56;10369274;28;20496;-72
2022/08/17 23:32:43;;;;;;;0.00;0.00;;;;;;;-145.06;100.00;63404.56;10390857;28;20050;-72
2022/08/17 23:37:43;;;;;;;0.10;0.10;;;;;;;-145.06;100.00;63404.56;10392691;28;20036;-74
2022/08/17 23:42:43;;;;;;;0.10;0.10;;;;;;;-145.06;100.00;63404.56;10445257;22;20051;-72